Time;durP1;ratioP1;P1;durP2;ratioP2;P2;SDS_P1;SDS_P2;PMS_P1;PMS_P2;Temp;Humidity;BMP_temperature;BMP_pressure;BME280_temperature;BME280_humidity;BME280_pressure;Samples;Min_cycle;Max_cycle;Signal;HPM_P1;HPM_P2
2022/07/23 00:01:32;;;;;;;7.95;4.93;;;13.40;99.90;;;;;;5075118;28;20087;-79
2022/07/23 00:04:00;;;;;;;10.95;5.30;;;13.40;99.90;;;;;;5075745;28;20017;-79
2022/07/23 00:06:27;;;;;;;6.40;5.15;;;13.50;99.90;;;;;;5072843;28;20031;-79
2022/07/23 00:08:54;;;;;;;8.05;5.38;;;13.60;99.90;;;;;;5074193;28;20498;-76
2022/07/23 00:11:22;;;;;;;9.00;5.38;;;13.60;99.90;;;;;;5072851;28;20074;-78
2022/07/23 00:13:50;;;;;;;5.30;4.18;;;13.60;99.90;;;;;;5073921;28;20020;-76
2022/07/23 00:16:18;;;;;;;7.43;4.25;;;13.50;99.90;;;;;;5055983;28;20035;-78
2022/07/23 00:18:45;;;;;;;4.00;3.13;;;13.60;99.90;;;;;;5072504;28;20016;-78
2022/07/23 00:21:12;;;;;;;4.90;3.92;;;13.80;99.90;;;;;;5072579;28;20447;-78
2022/07/23 00:23:42;;;;;;;8.02;4.20;;;13.70;99.90;;;;;;5073145;28;20062;-77
2022/07/23 00:26:10;;;;;;;4.43;2.90;;;13.90;99.90;;;;;;5072112;28;20461;-76
2022/07/23 00:28:37;;;;;;;3.83;2.67;;;14.00;99.90;;;;;;5072181;28;20029;-74
2022/07/23 00:31:05;;;;;;;4.22;3.15;;;14.10;99.90;;;;;;5074311;28;20469;-77
2022/07/23 00:33:32;;;;;;;3.83;3.35;;;14.30;99.90;;;;;;5073732;28;20044;-77
2022/07/23 00:35:59;;;;;;;4.78;3.30;;;14.40;99.90;;;;;;5072267;28;20028;-76
2022/07/23 00:38:27;;;;;;;3.47;2.95;;;14.50;99.90;;;;;;5072758;28;20024;-77
2022/07/23 00:40:54;;;;;;;5.88;3.25;;;14.60;99.90;;;;;;5073580;28;20017;-78
2022/07/23 00:43:23;;;;;;;3.22;2.42;;;14.70;99.90;;;;;;5074352;28;20384;-79
2022/07/23 00:45:51;;;;;;;3.47;2.40;;;14.80;99.90;;;;;;5073136;28;20032;-80
2022/07/23 00:48:19;;;;;;;2.70;2.38;;;14.90;99.90;;;;;;5074373;28;20052;-78
2022/07/23 00:50:47;;;;;;;2.95;2.67;;;14.90;99.90;;;;;;5072687;28;20028;-78
2022/07/23 00:53:15;;;;;;;3.80;2.70;;;15.00;99.90;;;;;;5073426;28;20024;-77
2022/07/23 00:55:42;;;;;;;5.25;2.72;;;15.10;99.90;;;;;;5073834;28;20023;-77
2022/07/23 03:23:48;;;;;;;0.98;0.30;;;16.60;99.90;;;;;;4119149;23;20044;-78
2022/07/23 03:26:16;;;;;;;2.83;0.52;;;16.90;99.90;;;;;;4921072;29;20107;-78
2022/07/23 03:28:43;;;;;;;2.55;0.30;;;17.20;99.90;;;;;;4937907;29;20079;-78
2022/07/23 03:31:11;;;;;;;3.20;0.50;;;17.30;99.90;;;;;;4937355;29;20020;-78
2022/07/23 03:33:38;;;;;;;1.52;0.25;;;17.10;99.90;;;;;;4920590;29;20373;-78
2022/07/23 03:36:06;;;;;;;1.55;0.65;;;16.70;99.90;;;;;;4920352;29;20078;-78
2022/07/23 03:38:33;;;;;;;2.40;0.40;;;16.60;99.90;;;;;;4920117;29;20019;-79
2022/07/23 03:41:00;;;;;;;2.10;0.60;;;16.40;99.90;;;;;;4938014;29;20028;-78
2022/07/23 03:43:27;;;;;;;2.47;0.73;;;16.50;99.90;;;;;;4920523;29;20077;-78
2022/07/23 03:45:55;;;;;;;2.10;0.20;;;16.80;99.90;;;;;;4919918;29;20520;-77
2022/07/23 03:48:27;;;;;;;1.65;0.30;;;17.00;99.90;;;;;;4937581;29;20028;-78
2022/07/23 03:50:54;;;;;;;1.85;0.40;;;16.80;99.90;;;;;;4919789;29;20484;-77
2022/07/23 03:53:22;;;;;;;3.72;0.50;;;16.80;99.90;;;;;;4920011;29;20040;-77
2022/07/23 03:55:49;;;;;;;3.10;0.65;;;17.20;99.90;;;;;;4919601;29;20118;-77
2022/07/23 03:58:16;;;;;;;1.67;0.30;;;17.40;99.90;;;;;;4919306;29;20024;-78
2022/07/23 04:00:44;;;;;;;2.30;0.30;;;16.90;99.90;;;;;;4937361;29;20030;-78
2022/07/23 04:03:11;;;;;;;2.95;0.40;;;16.60;99.90;;;;;;4937301;29;20480;-78
2022/07/23 04:05:39;;;;;;;1.20;0.30;;;16.50;99.90;;;;;;4936859;29;20023;-77
2022/07/23 04:08:06;;;;;;;1.50;0.40;;;16.40;99.90;;;;;;4919729;29;20028;-77
2022/07/23 04:10:33;;;;;;;1.92;0.40;;;16.60;99.90;;;;;;4937818;29;20023;-76
2022/07/23 04:13:00;;;;;;;4.65;0.70;;;16.70;99.90;;;;;;4919210;29;20024;-77
2022/07/23 04:15:28;;;;;;;1.23;0.47;;;16.80;99.90;;;;;;4919170;29;20063;-77
2022/07/23 04:17:56;;;;;;;2.97;0.68;;;17.00;99.90;;;;;;4920972;29;20027;-77
2022/07/23 04:20:23;;;;;;;1.58;0.20;;;17.30;99.90;;;;;;4919695;29;20023;-77
2022/07/23 04:22:50;;;;;;;1.20;0.20;;;17.30;99.90;;;;;;4916361;29;20134;-79
2022/07/23 04:25:19;;;;;;;2.20;0.60;;;17.20;99.90;;;;;;4916749;29;20083;-78
2022/07/23 04:27:46;;;;;;;0.52;0.30;;;17.20;99.90;;;;;;4918559;29;20032;-78
2022/07/23 04:30:14;;;;;;;1.30;0.40;;;16.70;99.90;;;;;;4916639;29;20032;-77
2022/07/23 04:32:41;;;;;;;1.13;0.50;;;16.20;99.90;;;;;;4917541;29;20027;-77
2022/07/23 04:35:09;;;;;;;0.70;0.30;;;15.90;99.90;;;;;;4916541;29;20024;-77
2022/07/23 04:37:36;;;;;;;1.85;0.38;;;15.70;99.90;;;;;;4917982;29;20239;-78
2022/07/23 04:40:04;;;;;;;0.77;0.32;;;15.60;99.90;;;;;;4901288;29;20028;-78
2022/07/23 04:42:32;;;;;;;2.40;0.50;;;15.70;99.90;;;;;;4917798;29;20120;-77
2022/07/23 04:44:59;;;;;;;2.40;0.50;;;15.60;99.90;;;;;;4917537;29;20020;-78
2022/07/23 04:47:26;;;;;;;1.50;0.60;;;15.60;99.90;;;;;;4918286;29;20110;-78
2022/07/23 04:49:54;;;;;;;1.00;0.40;;;15.70;99.90;;;;;;4918068;29;20384;-78
2022/07/23 04:52:21;;;;;;;2.33;0.50;;;15.70;99.90;;;;;;4918180;29;20080;-78
2022/07/23 04:54:48;;;;;;;0.85;0.40;;;15.80;99.90;;;;;;4916110;29;20084;-78
2022/07/23 04:57:16;;;;;;;0.50;0.20;;;16.00;99.90;;;;;;4917026;29;20031;-77
2022/07/23 04:59:43;;;;;;;0.65;0.30;;;16.20;99.90;;;;;;4916999;29;20032;-78
2022/07/23 05:02:10;;;;;;;0.85;0.30;;;16.30;99.90;;;;;;4916227;29;20096;-77
2022/07/23 05:04:38;;;;;;;0.75;0.40;;;16.30;99.90;;;;;;4917559;29;20028;-78
2022/07/23 05:07:06;;;;;;;1.23;0.43;;;16.40;99.90;;;;;;4917342;29;20028;-77
2022/07/23 05:09:34;;;;;;;1.50;0.20;;;16.40;99.90;;;;;;4918151;29;20052;-77
2022/07/23 05:12:01;;;;;;;2.15;0.20;;;16.40;99.90;;;;;;4920840;29;20028;-78
2022/07/23 05:14:29;;;;;;;1.20;0.30;;;16.30;99.90;;;;;;4921025;29;20123;-77
2022/07/23 05:16:56;;;;;;;0.20;0.20;;;16.30;99.90;;;;;;4919719;29;20040;-77
2022/07/23 05:19:23;;;;;;;0.80;0.20;;;16.20;99.90;;;;;;4919503;29;20181;-78
2022/07/23 05:21:51;;;;;;;0.60;0.20;;;16.10;99.90;;;;;;4920726;29;20086;-77
2022/07/23 05:24:19;;;;;;;2.08;0.28;;;16.00;99.90;;;;;;4903950;29;20396;-78
2022/07/23 05:26:47;;;;;;;3.40;0.20;;;16.10;99.90;;;;;;4903848;29;20036;-78
2022/07/23 05:29:15;;;;;;;0.60;0.20;;;16.00;99.90;;;;;;4904072;29;20040;-78
2022/07/23 05:31:42;;;;;;;2.03;0.52;;;16.00;99.90;;;;;;4919205;29;20399;-78
2022/07/23 05:34:10;;;;;;;1.92;0.40;;;15.80;99.90;;;;;;4919538;29;20393;-78
2022/07/23 05:36:37;;;;;;;0.95;0.35;;;15.90;99.90;;;;;;4920507;29;20053;-78
2022/07/23 05:39:05;;;;;;;2.67;0.50;;;15.90;99.90;;;;;;4921929;29;20035;-79
2022/07/23 05:41:32;;;;;;;1.38;0.40;;;15.90;99.90;;;;;;4923381;29;20024;-76
2022/07/23 05:44:00;;;;;;;2.30;0.30;;;15.80;99.90;;;;;;4909523;29;20038;-80
2022/07/23 05:46:27;;;;;;;0.90;0.20;;;15.90;99.90;;;;;;4924593;29;20039;-79
2022/07/23 05:48:54;;;;;;;1.23;0.30;;;15.90;99.90;;;;;;4926074;29;20032;-78
2022/07/23 05:51:23;;;;;;;0.70;0.35;;;15.90;99.90;;;;;;4921558;29;20024;-79
2022/07/23 05:53:51;;;;;;;1.80;0.60;;;15.90;99.90;;;;;;4921908;29;20029;-79
2022/07/23 05:56:20;;;;;;;3.50;0.70;;;15.80;99.90;;;;;;4923561;29;20040;-77
2022/07/23 05:58:48;;;;;;;1.33;0.68;;;15.70;99.90;;;;;;4920228;29;20025;-78
2022/07/23 06:01:15;;;;;;;2.22;0.80;;;15.50;99.90;;;;;;4902990;29;20046;-77
2022/07/23 06:03:43;;;;;;;1.85;0.50;;;15.40;99.90;;;;;;4918989;29;20036;-78
2022/07/23 06:06:10;;;;;;;1.98;0.80;;;15.40;99.90;;;;;;4919266;29;20028;-77
2022/07/23 06:08:38;;;;;;;0.80;0.50;;;15.30;99.90;;;;;;4920157;29;20490;-79
2022/07/23 06:11:05;;;;;;;2.53;0.70;;;15.20;99.90;;;;;;4905791;29;20095;-78
2022/07/23 06:13:32;;;;;;;2.00;0.50;;;15.20;99.90;;;;;;4918629;29;20032;-77
2022/07/23 06:16:00;;;;;;;2.85;0.68;;;15.20;99.90;;;;;;4919843;29;20049;-75
2022/07/23 06:18:27;;;;;;;1.45;0.52;;;15.10;99.90;;;;;;4917886;29;20024;-76
2022/07/23 06:20:55;;;;;;;1.58;0.60;;;15.00;99.90;;;;;;4919282;29;20027;-76
2022/07/23 06:23:22;;;;;;;1.83;0.43;;;14.90;99.90;;;;;;4930544;29;20130;-75
2022/07/23 06:25:50;;;;;;;0.95;0.40;;;14.80;99.90;;;;;;4921399;29;20046;-75
2022/07/23 06:28:17;;;;;;;2.72;1.10;;;14.80;99.90;;;;;;4920883;29;20032;-76
2022/07/23 06:30:45;;;;;;;3.00;0.52;;;14.70;99.90;;;;;;4938027;29;20503;-76
2022/07/23 06:33:12;;;;;;;0.90;0.50;;;14.70;99.90;;;;;;4921923;29;20465;-76
2022/07/23 06:35:40;;;;;;;0.82;0.30;;;14.60;99.90;;;;;;4938241;29;20024;-76
2022/07/23 06:38:07;;;;;;;1.73;0.40;;;14.60;99.90;;;;;;4920820;29;20381;-76
2022/07/23 06:40:34;;;;;;;2.15;0.50;;;14.50;99.90;;;;;;4938115;29;20024;-75
2022/07/23 06:43:02;;;;;;;0.80;0.40;;;14.40;99.90;;;;;;4938088;29;20028;-75
2022/07/23 06:45:29;;;;;;;2.92;0.57;;;14.40;99.90;;;;;;4937739;29;20030;-76
2022/07/23 06:47:56;;;;;;;1.95;0.50;;;14.30;99.90;;;;;;4937784;29;20082;-76
2022/07/23 06:50:25;;;;;;;2.25;0.50;;;14.30;99.90;;;;;;4937895;29;20115;-76
2022/07/23 06:52:52;;;;;;;2.80;0.75;;;14.20;99.90;;;;;;4920689;29;20034;-76
2022/07/23 06:55:20;;;;;;;1.52;0.60;;;14.20;99.90;;;;;;4937959;29;20052;-75
2022/07/23 06:57:47;;;;;;;3.42;1.60;;;14.10;99.90;;;;;;4938385;29;20024;-74
2022/07/23 07:00:15;;;;;;;3.92;1.70;;;14.10;99.90;;;;;;4920510;29;20031;-75
2022/07/23 07:02:42;;;;;;;3.70;1.40;;;14.10;99.90;;;;;;4920911;29;20034;-75
2022/07/23 07:05:10;;;;;;;5.88;1.73;;;14.10;99.90;;;;;;4920445;29;20027;-76
2022/07/23 07:07:37;;;;;;;4.05;1.80;;;14.10;99.90;;;;;;4920550;29;20035;-76
2022/07/23 07:10:05;;;;;;;2.00;1.67;;;14.10;99.90;;;;;;4920467;29;20031;-75
2022/07/23 07:12:32;;;;;;;4.50;1.98;;;14.00;99.90;;;;;;4919969;29;20038;-75
2022/07/23 07:15:00;;;;;;;3.28;1.90;;;13.90;99.90;;;;;;4919881;29;20023;-75
2022/07/23 07:17:28;;;;;;;2.63;1.90;;;13.80;99.90;;;;;;4920427;29;20031;-75
2022/07/23 07:19:55;;;;;;;5.32;1.77;;;13.80;99.90;;;;;;4920011;29;20027;-75
2022/07/23 07:22:22;;;;;;;3.40;1.80;;;13.80;99.90;;;;;;4919716;29;20102;-75
2022/07/23 07:24:50;;;;;;;3.55;1.73;;;13.70;99.90;;;;;;4937253;29;20027;-75
2022/07/23 07:27:17;;;;;;;3.55;1.67;;;13.60;99.90;;;;;;4937198;29;20499;-75
2022/07/23 07:29:45;;;;;;;3.05;1.90;;;13.60;99.90;;;;;;4937023;29;20030;-75
2022/07/23 07:32:12;;;;;;;2.83;1.63;;;13.50;99.90;;;;;;4936199;29;20067;-75
2022/07/23 07:34:39;;;;;;;3.63;1.40;;;13.40;99.90;;;;;;4919203;29;20031;-77
2022/07/23 07:37:07;;;;;;;3.70;2.03;;;13.40;99.90;;;;;;4936349;29;20321;-75
2022/07/23 07:39:35;;;;;;;4.65;1.88;;;13.30;99.90;;;;;;4936291;29;20020;-76
2022/07/23 07:42:03;;;;;;;9.13;3.20;;;13.30;99.90;;;;;;4936392;29;20030;-78
2022/07/23 07:44:31;;;;;;;6.35;3.45;;;13.40;99.90;;;;;;4920649;29;20058;-78
2022/07/23 07:46:58;;;;;;;5.15;3.28;;;13.40;99.90;;;;;;4936645;29;20476;-77
2022/07/23 07:49:26;;;;;;;4.13;3.45;;;13.30;99.90;;;;;;4919446;29;20031;-77
2022/07/23 07:51:53;;;;;;;6.20;3.42;;;13.30;99.90;;;;;;4904383;29;20043;-77
2022/07/23 07:54:21;;;;;;;5.47;3.10;;;13.20;99.90;;;;;;4937071;29;20468;-75
2022/07/23 07:56:48;;;;;;;5.55;3.50;;;13.20;99.90;;;;;;4919442;29;20456;-77
2022/07/23 07:59:15;;;;;;;3.97;3.38;;;13.20;99.90;;;;;;4919120;29;20111;-76
2022/07/23 08:01:43;;;;;;;6.03;3.75;;;13.20;99.90;;;;;;4936558;29;20051;-76
2022/07/23 08:04:10;;;;;;;8.18;4.82;;;13.30;99.90;;;;;;4919405;29;20131;-77
2022/07/23 08:06:38;;;;;;;6.28;3.85;;;13.50;99.90;;;;;;4936962;29;20403;-77
2022/07/23 08:09:05;;;;;;;8.57;4.55;;;13.50;99.90;;;;;;4919597;29;20031;-76
2022/07/23 08:11:32;;;;;;;7.10;4.57;;;13.50;99.90;;;;;;4936606;29;20542;-76
2022/07/23 08:14:00;;;;;;;9.80;5.07;;;13.50;99.90;;;;;;4920649;29;20027;-79
2022/07/23 08:16:27;;;;;;;6.40;4.28;;;13.40;99.90;;;;;;4922832;29;20114;-79
2022/07/23 08:18:55;;;;;;;7.32;5.13;;;13.40;99.90;;;;;;4940944;29;20032;-80
2022/07/23 08:21:22;;;;;;;6.28;4.10;;;13.40;99.90;;;;;;4943909;29;20083;-78
2022/07/23 08:23:49;;;;;;;8.98;5.05;;;13.30;99.90;;;;;;4939516;29;20048;-79
2022/07/23 08:26:17;;;;;;;5.80;4.32;;;13.30;99.90;;;;;;4937919;29;20079;-78
2022/07/23 08:28:44;;;;;;;6.10;4.30;;;13.30;99.90;;;;;;4937117;29;20023;-77
2022/07/23 08:31:12;;;;;;;6.53;4.57;;;13.30;99.90;;;;;;4919961;29;20035;-76
2022/07/23 08:33:39;;;;;;;6.70;4.53;;;13.20;99.90;;;;;;4919255;29;20028;-79
2022/07/23 08:36:07;;;;;;;8.93;5.45;;;13.20;99.90;;;;;;4920033;29;20027;-78
2022/07/23 08:38:35;;;;;;;7.72;6.00;;;13.20;99.90;;;;;;4921314;29;20024;-77
2022/07/23 08:41:04;;;;;;;8.77;6.40;;;13.20;99.90;;;;;;4939943;29;20039;-78
2022/07/23 08:43:35;;;;;;;7.07;5.60;;;13.20;99.90;;;;;;4922922;29;20032;-78
2022/07/23 08:46:05;;;;;;;7.35;4.88;;;13.20;99.90;;;;;;4914290;29;20035;-78
2022/07/23 08:48:37;;;;;;;7.80;5.68;;;13.10;99.90;;;;;;4943604;29;20028;-80
2022/07/23 08:51:06;;;;;;;5.97;4.53;;;13.10;99.90;;;;;;4926349;29;20083;-79
2022/07/23 08:53:38;;;;;;;5.82;4.63;;;13.00;99.90;;;;;;4924086;29;20059;-78
2022/07/23 08:56:07;;;;;;;6.88;5.10;;;13.00;99.90;;;;;;4923159;29;20028;-77
2022/07/23 08:58:35;;;;;;;7.55;5.18;;;12.90;99.90;;;;;;4922850;29;20027;-76
2022/07/23 09:01:04;;;;;;;8.98;6.18;;;12.80;99.90;;;;;;4924290;29;20019;-78
2022/07/23 09:03:39;;;;;;;9.35;5.85;;;12.80;99.90;;;;;;4923473;29;20397;-78
2022/07/23 09:06:06;;;;;;;10.07;6.80;;;12.70;99.90;;;;;;4940586;29;20039;-78
2022/07/23 09:08:42;;;;;;;8.60;6.60;;;12.60;99.90;;;;;;4923024;29;20032;-78
2022/07/23 09:11:12;;;;;;;8.77;7.25;;;12.60;99.90;;;;;;4925222;29;20037;-79
2022/07/23 09:13:45;;;;;;;9.77;7.10;;;12.60;99.90;;;;;;4947630;29;20031;-78
2022/07/23 09:16:24;;;;;;;10.57;7.03;;;12.60;99.90;;;;;;4928604;29;20039;-79
2022/07/23 09:19:01;;;;;;;11.13;6.53;;;12.70;99.90;;;;;;4925603;29;20365;-79
2022/07/23 09:21:36;;;;;;;12.70;8.00;;;12.60;99.90;;;;;;4926903;29;20020;-80
2022/07/23 09:24:05;;;;;;;9.38;7.13;;;12.60;99.90;;;;;;4939802;29;20055;-80
2022/07/23 09:26:39;;;;;;;10.07;7.18;;;12.60;99.90;;;;;;4923499;29;20024;-80
2022/07/23 09:29:13;;;;;;;9.07;6.75;;;12.60;99.90;;;;;;4923828;29;20031;-79
2022/07/23 09:31:59;;;;;;;8.45;6.43;;;12.50;99.90;;;;;;4923012;29;20027;-81
2022/07/23 09:34:30;;;;;;;12.13;8.10;;;12.60;99.90;;;;;;4923457;29;20057;-79
2022/07/23 09:37:17;;;;;;;12.32;7.75;;;12.60;99.90;;;;;;4923257;29;20028;-79
2022/07/23 09:39:50;;;;;;;10.05;8.02;;;12.60;99.90;;;;;;4924249;29;20051;-79
2022/07/23 09:42:19;;;;;;;13.18;8.60;;;12.60;99.90;;;;;;4922787;29;20038;-78
2022/07/23 09:44:52;;;;;;;11.27;8.82;;;12.60;99.90;;;;;;4922432;29;20071;-77
2022/07/23 09:47:20;;;;;;;14.30;8.88;;;12.60;99.90;;;;;;4939254;29;20028;-76
2022/07/23 09:50:12;;;;;;;12.10;8.70;;;12.70;99.90;;;;;;4939261;29;20027;-77
2022/07/23 09:52:50;;;;;;;11.93;10.23;;;12.70;99.90;;;;;;4922039;29;20035;-79
2022/07/23 09:55:18;;;;;;;14.30;11.23;;;12.80;99.90;;;;;;4939226;29;20075;-78
2022/07/23 09:57:53;;;;;;;14.82;10.88;;;12.80;99.90;;;;;;4922422;29;20038;-78
2022/07/23 10:00:38;;;;;;;10.95;9.48;;;12.80;99.90;;;;;;4923864;29;20020;-76
2022/07/23 10:03:14;;;;;;;15.45;12.15;;;12.80;99.90;;;;;;4938772;29;20123;-76
2022/07/23 10:05:43;;;;;;;14.45;11.48;;;12.80;99.90;;;;;;4921340;29;20028;-76
2022/07/23 10:08:13;;;;;;;11.02;9.93;;;12.80;99.90;;;;;;4938537;29;20148;-75
2022/07/23 10:10:41;;;;;;;11.90;10.07;;;12.80;99.90;;;;;;4938318;29;20026;-75
2022/07/23 10:15:37;;;;;;;13.73;12.30;;;12.70;99.90;;;;;;4938378;29;20099;-76
2022/07/23 10:18:06;;;;;;;15.52;13.60;;;12.60;99.90;;;;;;4921504;29;20054;-75
2022/07/23 10:20:34;;;;;;;14.98;12.98;;;12.60;99.90;;;;;;4906321;29;20036;-75
2022/07/23 10:23:10;;;;;;;15.90;12.45;;;12.50;99.90;;;;;;4938513;29;20084;-76
2022/07/23 10:25:41;;;;;;;13.68;11.88;;;12.40;99.90;;;;;;4921802;29;20028;-75
2022/07/23 10:28:32;;;;;;;17.55;13.13;;;12.40;99.90;;;;;;4921956;29;20032;-75
2022/07/23 10:31:39;;;;;;;13.18;10.77;;;12.30;99.90;;;;;;4921626;29;20514;-75
2022/07/23 10:34:35;;;;;;;15.75;12.63;;;12.20;99.90;;;;;;4938142;29;20031;-76
2022/07/23 10:37:26;;;;;;;15.00;13.02;;;12.20;99.90;;;;;;4920484;29;20032;-76
2022/07/23 10:40:17;;;;;;;16.27;13.27;;;12.20;99.90;;;;;;4921071;29;20126;-75
2022/07/23 10:42:47;;;;;;;16.92;14.07;;;12.10;99.90;;;;;;4920829;29;20118;-75
2022/07/23 10:45:30;;;;;;;16.65;13.27;;;12.10;99.90;;;;;;4920709;29;20028;-76
2022/07/23 10:48:16;;;;;;;14.45;11.65;;;12.00;99.90;;;;;;4937777;29;20500;-75
2022/07/23 10:51:04;;;;;;;16.20;11.50;;;12.10;99.90;;;;;;4936490;29;20403;-75
2022/07/23 10:53:51;;;;;;;15.27;10.13;;;12.20;99.90;;;;;;4920278;29;20051;-75
2022/07/23 10:56:56;;;;;;;10.50;8.45;;;12.20;99.90;;;;;;4937692;29;20027;-75
2022/07/23 10:59:23;;;;;;;10.02;8.27;;;12.30;99.90;;;;;;4920580;29;20028;-75
2022/07/23 11:01:51;;;;;;;9.77;8.77;;;12.30;99.90;;;;;;4920413;29;20024;-76
2022/07/23 11:04:18;;;;;;;10.77;8.98;;;12.40;99.90;;;;;;4920456;29;20020;-74
2022/07/23 11:06:52;;;;;;;11.10;8.45;;;12.40;99.90;;;;;;4936967;29;20392;-75
2022/07/23 11:09:29;;;;;;;11.48;9.20;;;12.40;99.90;;;;;;4937623;29;20024;-74
2022/07/23 11:12:31;;;;;;;10.60;8.45;;;12.40;99.90;;;;;;4920211;29;20118;-75
2022/07/23 11:15:07;;;;;;;12.95;7.88;;;12.40;99.90;;;;;;4860354;29;20099;-75
2022/07/23 11:17:54;;;;;;;10.63;9.48;;;12.30;99.90;;;;;;4910811;29;20519;-75
2022/07/23 11:20:24;;;;;;;12.05;9.13;;;12.30;99.90;;;;;;4910750;29;20066;-76
2022/07/23 11:22:59;;;;;;;11.20;10.10;;;12.30;99.90;;;;;;4937112;29;20056;-75
2022/07/23 11:25:29;;;;;;;13.25;12.00;;;12.30;99.90;;;;;;4920769;29;20484;-76
2022/07/23 11:28:09;;;;;;;12.57;10.90;;;12.30;99.90;;;;;;4937721;29;20031;-75
2022/07/23 11:30:38;;;;;;;12.65;11.32;;;12.40;99.90;;;;;;4937174;29;20396;-75
2022/07/23 11:33:09;;;;;;;12.13;10.80;;;12.30;99.90;;;;;;4919736;29;20031;-76
2022/07/23 11:35:38;;;;;;;12.80;10.98;;;12.30;99.90;;;;;;4919573;29;20044;-76
2022/07/23 11:38:20;;;;;;;11.60;10.00;;;12.30;99.90;;;;;;4919940;29;20036;-76
2022/07/23 11:40:54;;;;;;;11.50;10.32;;;12.30;99.90;;;;;;4937239;29;20028;-77
2022/07/23 11:43:22;;;;;;;10.82;9.70;;;12.30;99.90;;;;;;4937160;29;20030;-73
2022/07/23 11:45:58;;;;;;;10.93;8.73;;;12.30;99.90;;;;;;4936765;29;20028;-72
2022/07/23 11:48:28;;;;;;;10.18;9.07;;;12.40;99.90;;;;;;4919612;29;20522;-73
2022/07/23 11:50:56;;;;;;;10.50;9.07;;;12.40;99.90;;;;;;4919500;29;20122;-73
2022/07/23 11:53:29;;;;;;;11.52;9.80;;;12.50;99.90;;;;;;4936369;29;20035;-72
2022/07/23 11:56:09;;;;;;;13.20;10.05;;;12.50;99.90;;;;;;4919796;29;20043;-73
2022/07/23 11:58:37;;;;;;;10.32;9.32;;;12.50;99.90;;;;;;4937163;29;20409;-75
2022/07/23 12:01:05;;;;;;;8.50;7.60;;;12.50;99.90;;;;;;4936678;29;20102;-75
2022/07/23 12:03:33;;;;;;;9.57;8.15;;;12.40;99.90;;;;;;4920037;29;20028;-75
2022/07/23 12:06:01;;;;;;;8.40;6.97;;;12.40;99.90;;;;;;4919289;29;20039;-74
2022/07/23 12:08:28;;;;;;;8.20;7.13;;;12.40;99.90;;;;;;4936308;29;20079;-73
2022/07/23 12:10:56;;;;;;;10.70;7.13;;;12.40;99.90;;;;;;4936541;29;20078;-74
2022/07/23 12:13:24;;;;;;;9.43;7.22;;;12.40;99.90;;;;;;4919325;29;20082;-75
2022/07/23 12:15:53;;;;;;;9.07;6.63;;;12.30;99.90;;;;;;4919145;29;20075;-74
2022/07/23 12:18:26;;;;;;;8.10;6.55;;;12.30;99.90;;;;;;4918808;29;20119;-73
2022/07/23 12:20:56;;;;;;;7.95;6.13;;;12.20;99.90;;;;;;4919367;29;20491;-75
2022/07/23 12:23:25;;;;;;;8.73;7.13;;;12.20;99.90;;;;;;4936057;29;20062;-75
2022/07/23 12:25:54;;;;;;;8.23;5.95;;;12.20;99.90;;;;;;4919213;29;20539;-74
2022/07/23 12:28:27;;;;;;;8.52;7.38;;;12.10;99.90;;;;;;4919229;29;20042;-74
2022/07/23 12:30:58;;;;;;;8.68;7.80;;;12.10;99.90;;;;;;4936120;29;20500;-75
2022/07/23 12:33:28;;;;;;;10.77;8.15;;;12.00;99.90;;;;;;4918943;29;20032;-74
2022/07/23 12:35:58;;;;;;;8.43;7.63;;;11.90;99.90;;;;;;4919781;29;20488;-75
2022/07/23 12:38:28;;;;;;;9.95;8.25;;;11.90;99.90;;;;;;4919857;29;20266;-75
2022/07/23 12:41:00;;;;;;;11.95;8.55;;;11.80;99.90;;;;;;4903162;29;20074;-73
2022/07/23 12:43:31;;;;;;;9.65;8.65;;;11.80;99.90;;;;;;4936387;29;20500;-73
2022/07/23 12:46:03;;;;;;;13.30;8.63;;;11.80;99.90;;;;;;4919385;29;20097;-74
2022/07/23 12:48:55;;;;;;;12.95;10.07;;;11.80;99.90;;;;;;4918963;29;20514;-73
2022/07/23 12:51:32;;;;;;;10.60;9.48;;;11.70;99.90;;;;;;4936260;29;20051;-75
2022/07/23 12:54:08;;;;;;;10.98;9.88;;;11.70;99.90;;;;;;4904268;29;20502;-74
2022/07/23 12:56:38;;;;;;;12.38;11.07;;;11.60;99.90;;;;;;4919137;29;20050;-75
2022/07/23 12:59:11;;;;;;;13.25;10.77;;;11.60;99.90;;;;;;4918941;29;20476;-76
2022/07/23 13:01:40;;;;;;;13.60;11.32;;;11.60;99.90;;;;;;4919197;29;20032;-75
2022/07/23 13:04:09;;;;;;;12.70;11.27;;;11.60;99.90;;;;;;4936442;29;20047;-75
2022/07/23 13:06:44;;;;;;;12.95;11.65;;;11.50;99.90;;;;;;4919097;29;20042;-74
2022/07/23 13:09:18;;;;;;;15.43;11.50;;;11.50;99.90;;;;;;4936094;29;20020;-74
2022/07/23 13:11:48;;;;;;;15.25;13.63;;;11.40;99.90;;;;;;4936130;29;20104;-73
2022/07/23 13:14:17;;;;;;;14.20;12.80;;;11.40;99.90;;;;;;4903190;29;20054;-73
2022/07/23 13:16:46;;;;;;;14.70;13.18;;;11.40;99.90;;;;;;4918682;29;20059;-72
2022/07/23 13:19:14;;;;;;;14.10;12.70;;;11.40;99.90;;;;;;4918508;29;20027;-73
2022/07/23 13:21:45;;;;;;;14.52;13.07;;;11.40;99.90;;;;;;4919486;29;20032;-72
2022/07/23 13:24:13;;;;;;;15.88;14.23;;;11.40;99.90;;;;;;4903494;29;20056;-72
2022/07/23 13:26:41;;;;;;;14.70;13.18;;;11.40;99.90;;;;;;4903378;29;20042;-72
2022/07/23 13:29:10;;;;;;;15.95;14.18;;;11.40;99.90;;;;;;4918505;29;20032;-73
2022/07/23 13:31:38;;;;;;;14.15;12.70;;;11.40;99.90;;;;;;4906558;29;20062;-73
2022/07/23 13:34:07;;;;;;;14.30;12.80;;;11.40;99.90;;;;;;4907032;29;20040;-74
2022/07/23 13:36:36;;;;;;;15.02;12.82;;;11.40;99.90;;;;;;4922260;29;20492;-73
2022/07/23 13:39:04;;;;;;;13.75;12.43;;;11.30;99.90;;;;;;4939750;29;20024;-73
2022/07/23 13:41:31;;;;;;;16.35;14.68;;;11.30;99.90;;;;;;4922267;29;20098;-74
2022/07/23 13:43:59;;;;;;;16.38;14.68;;;11.20;99.90;;;;;;4939779;29;20028;-75
2022/07/23 13:46:27;;;;;;;15.18;13.68;;;11.20;99.90;;;;;;4922318;29;20032;-75
2022/07/23 13:48:55;;;;;;;15.73;14.07;;;11.20;99.90;;;;;;4939327;29;20031;-75
2022/07/23 13:51:23;;;;;;;14.52;13.15;;;11.20;99.90;;;;;;4922467;29;20037;-75
2022/07/23 13:53:51;;;;;;;17.15;13.43;;;11.10;99.90;;;;;;4939154;29;20027;-76
2022/07/23 13:56:18;;;;;;;15.32;13.65;;;11.10;99.90;;;;;;4939756;29;20019;-75
2022/07/23 13:58:46;;;;;;;14.55;13.02;;;11.00;99.90;;;;;;4939297;29;20083;-75
2022/07/23 14:01:14;;;;;;;14.25;12.75;;;11.00;99.90;;;;;;4939281;29;20384;-75
2022/07/23 14:03:41;;;;;;;16.27;14.68;;;11.00;99.90;;;;;;4921885;29;20027;-75
2022/07/23 14:06:09;;;;;;;15.50;13.25;;;11.10;99.90;;;;;;4921658;29;20503;-76
2022/07/23 14:08:36;;;;;;;13.48;12.18;;;11.00;99.90;;;;;;4921404;29;20032;-75
2022/07/23 14:11:03;;;;;;;12.60;11.30;;;11.00;99.90;;;;;;4938832;29;20556;-75
2022/07/23 14:13:31;;;;;;;15.60;13.13;;;11.00;99.90;;;;;;4939228;29;20023;-74
2022/07/23 14:15:58;;;;;;;14.13;12.75;;;10.90;99.90;;;;;;4938934;29;20035;-74
2022/07/23 14:18:26;;;;;;;16.48;14.38;;;10.90;99.90;;;;;;4921744;29;20035;-74
2022/07/23 14:20:54;;;;;;;12.85;11.55;;;10.90;99.90;;;;;;4906143;29;20028;-74
2022/07/23 14:23:21;;;;;;;16.67;14.88;;;10.90;99.90;;;;;;4905581;29;20063;-74
2022/07/23 14:25:49;;;;;;;17.30;15.68;;;10.90;99.90;;;;;;4938724;29;20024;-75
2022/07/23 14:28:16;;;;;;;16.15;14.45;;;10.90;99.90;;;;;;4921407;29;20036;-76
2022/07/23 14:30:43;;;;;;;17.63;15.85;;;10.90;99.90;;;;;;4921471;29;20082;-76
2022/07/23 14:33:11;;;;;;;19.08;16.83;;;10.90;99.90;;;;;;4921405;29;20055;-76
2022/07/23 14:35:40;;;;;;;18.52;16.05;;;11.00;99.90;;;;;;4921357;29;20105;-75
2022/07/23 14:38:08;;;;;;;16.98;15.25;;;11.00;99.90;;;;;;4921395;29;20468;-75
2022/07/23 14:40:35;;;;;;;16.13;14.05;;;10.90;99.90;;;;;;4921012;29;20039;-74
2022/07/23 14:43:02;;;;;;;17.05;15.27;;;10.90;99.90;;;;;;4937553;29;20032;-75
2022/07/23 14:45:30;;;;;;;20.02;16.35;;;10.80;99.90;;;;;;4938499;29;20032;-75
2022/07/23 14:47:58;;;;;;;17.83;16.08;;;10.70;99.90;;;;;;4921205;29;20083;-76
2022/07/23 14:50:25;;;;;;;16.70;14.95;;;10.70;99.90;;;;;;4938174;29;20547;-75
2022/07/23 14:52:53;;;;;;;16.75;15.02;;;10.70;99.90;;;;;;4920609;29;20507;-77
2022/07/23 14:55:20;;;;;;;17.17;15.43;;;10.70;99.90;;;;;;4938315;29;20016;-77
2022/07/23 14:57:48;;;;;;;16.10;14.45;;;10.70;99.90;;;;;;4920946;29;20429;-78
2022/07/23 15:00:15;;;;;;;16.00;14.40;;;10.70;99.90;;;;;;4921186;29;20392;-77
2022/07/23 15:02:43;;;;;;;15.75;14.18;;;10.60;99.90;;;;;;4937947;29;20503;-76
2022/07/23 15:05:10;;;;;;;15.98;14.25;;;10.60;99.90;;;;;;4938763;29;20024;-76
2022/07/23 15:07:38;;;;;;;15.57;13.98;;;10.50;99.90;;;;;;4938062;29;20520;-77
2022/07/23 15:10:06;;;;;;;14.48;12.98;;;10.50;99.90;;;;;;4920942;29;20397;-77
2022/07/23 15:12:33;;;;;;;15.50;13.90;;;10.40;99.90;;;;;;4920698;29;20396;-77
2022/07/23 15:15:00;;;;;;;14.20;12.88;;;10.40;99.90;;;;;;4920730;29;20030;-78
2022/07/23 15:17:28;;;;;;;15.02;13.45;;;10.40;99.90;;;;;;4920895;29;20034;-77
2022/07/23 15:19:55;;;;;;;15.70;14.18;;;10.40;99.90;;;;;;4938104;29;20135;-76
2022/07/23 15:22:23;;;;;;;17.63;15.88;;;10.30;99.90;;;;;;4920481;29;20142;-76